createdAt,value
2019-03-08T00:00:45.382Z,90.10
2019-03-08T00:03:12.022Z,90.10
2019-03-08T00:05:39.063Z,90.10
2019-03-08T00:08:05.671Z,90.20
2019-03-08T00:10:32.320Z,90.10
2019-03-08T00:12:59.289Z,90.40
2019-03-08T00:15:26.434Z,90.20
2019-03-08T00:17:53.581Z,90.20
2019-03-08T00:20:20.529Z,90.40
2019-03-08T00:22:47.576Z,90.30
2019-03-08T00:25:14.603Z,90.30
2019-03-08T00:27:41.607Z,90.50
2019-03-08T00:30:10.960Z,90.70
2019-03-08T00:32:37.465Z,90.80
2019-03-08T00:35:06.762Z,90.70
2019-03-08T00:37:33.870Z,90.80
2019-03-08T00:40:00.815Z,90.60
2019-03-08T00:42:27.421Z,90.60
2019-03-08T00:44:54.442Z,90.70
2019-03-08T00:47:21.113Z,90.50
2019-03-08T00:49:48.081Z,90.70
2019-03-08T00:52:15.027Z,90.50
2019-03-08T00:54:41.647Z,90.60
2019-03-08T00:57:08.310Z,90.40
2019-03-08T00:59:34.946Z,90.50
2019-03-08T01:02:01.793Z,90.50
2019-03-08T01:04:28.743Z,90.70
2019-03-08T01:06:55.673Z,90.70
2019-03-08T01:09:22.635Z,90.60
2019-03-08T01:11:49.247Z,90.70
2019-03-08T01:14:16.217Z,90.50
2019-03-08T01:16:43.384Z,90.50
2019-03-08T01:19:10.311Z,90.60
2019-03-08T01:21:37.151Z,90.70
2019-03-08T01:24:03.688Z,90.90
2019-03-08T01:26:31.891Z,90.90
2019-03-08T01:28:58.866Z,91.00
2019-03-08T01:31:25.413Z,90.80
2019-03-08T01:33:52.390Z,90.60
2019-03-08T01:36:19.314Z,91.00
2019-03-08T01:38:45.967Z,91.00
2019-03-08T01:41:12.595Z,91.00
2019-03-08T01:43:39.575Z,90.80
2019-03-08T01:46:06.722Z,91.00
2019-03-08T01:48:33.319Z,91.40
2019-03-08T01:50:59.994Z,91.50
2019-03-08T01:53:26.638Z,91.20
2019-03-08T01:55:53.681Z,91.40
2019-03-08T01:58:20.521Z,91.50
2019-03-08T02:00:47.165Z,91.60
2019-03-08T02:03:14.115Z,91.40
2019-03-08T02:05:41.167Z,91.20
2019-03-08T02:08:07.815Z,91.30
2019-03-08T02:10:34.418Z,91.10
2019-03-08T02:13:01.275Z,91.00
2019-03-08T02:15:28.947Z,91.30
2019-03-08T02:17:55.876Z,91.20
2019-03-08T02:20:23.038Z,91.30
2019-03-08T02:22:49.987Z,91.20
2019-03-08T02:25:16.934Z,91.00
2019-03-08T02:27:44.219Z,91.00
2019-03-08T02:30:12.838Z,91.20
2019-03-08T02:32:39.641Z,91.20
2019-03-08T02:35:07.787Z,91.10
2019-03-08T02:37:35.045Z,91.20
2019-03-08T02:40:01.652Z,91.10
2019-03-08T02:42:28.528Z,91.40
2019-03-08T02:44:55.474Z,91.50
2019-03-08T02:47:22.713Z,91.30
2019-03-08T02:49:49.975Z,91.30
2019-03-08T02:52:16.603Z,91.20
2019-03-08T02:54:43.253Z,91.20
2019-03-08T02:57:10.401Z,91.30
2019-03-08T02:59:37.008Z,91.40
2019-03-08T03:02:04.293Z,91.40
2019-03-08T03:04:30.902Z,91.70
2019-03-08T03:06:58.068Z,91.70
2019-03-08T03:09:24.927Z,91.80
2019-03-08T03:11:51.876Z,91.70
2019-03-08T03:14:18.823Z,91.40
2019-03-08T03:16:45.779Z,91.50
2019-03-08T03:19:12.712Z,91.40
2019-03-08T03:21:39.654Z,91.70
2019-03-08T03:24:06.801Z,91.40
2019-03-08T03:26:33.962Z,91.60
2019-03-08T03:29:00.565Z,91.70
2019-03-08T03:31:27.552Z,91.60
2019-03-08T03:33:54.049Z,91.80
2019-03-08T03:36:21.134Z,92.00
2019-03-08T03:38:48.065Z,91.90
2019-03-08T03:41:14.682Z,91.80
2019-03-08T03:43:41.291Z,91.60
2019-03-08T03:46:08.400Z,91.50
2019-03-08T03:48:34.915Z,91.60
2019-03-08T03:51:01.790Z,91.50
2019-03-08T03:53:28.438Z,91.50
2019-03-08T03:55:55.564Z,91.40
2019-03-08T03:58:24.746Z,91.50
2019-03-08T04:00:51.614Z,91.70
2019-03-08T04:03:18.559Z,91.10
2019-03-08T04:05:45.265Z,91.30
2019-03-08T04:08:12.250Z,91.20
2019-03-08T04:10:39.195Z,91.20
2019-03-08T04:13:06.125Z,91.10
2019-03-08T04:15:33.092Z,90.80
2019-03-08T04:17:59.699Z,90.70
2019-03-08T04:20:26.245Z,90.80
2019-03-08T04:22:53.087Z,91.00
2019-03-08T04:25:19.838Z,91.00
2019-03-08T04:27:46.788Z,91.20
2019-03-08T04:30:40.682Z,91.40
2019-03-08T04:33:07.223Z,91.20
2019-03-08T04:35:33.912Z,91.10
2019-03-08T04:38:00.784Z,91.10
2019-03-08T04:40:27.388Z,91.30
2019-03-08T04:42:54.375Z,91.00
2019-03-08T04:45:20.919Z,91.40
2019-03-08T04:47:47.750Z,91.20
2019-03-08T04:50:14.764Z,91.00
2019-03-08T04:52:41.629Z,91.10
2019-03-08T04:55:16.741Z,91.20
2019-03-08T04:57:43.712Z,91.40
2019-03-08T05:00:18.973Z,91.30
2019-03-08T05:02:45.516Z,91.10
2019-03-08T05:05:12.126Z,91.10
2019-03-08T05:07:39.081Z,91.60
2019-03-08T05:10:11.932Z,91.10
2019-03-08T05:12:38.740Z,91.10
2019-03-08T05:15:05.648Z,91.40
2019-03-08T05:17:32.590Z,91.40
2019-03-08T05:19:59.103Z,91.10
2019-03-08T05:22:25.978Z,91.30
2019-03-08T05:24:52.522Z,91.50
2019-03-08T05:27:19.375Z,91.40
2019-03-08T05:29:46.284Z,91.50
2019-03-08T05:32:13.154Z,91.40
2019-03-08T05:34:40.195Z,91.60
2019-03-08T05:37:07.123Z,91.30
2019-03-08T05:39:33.680Z,91.20
2019-03-08T05:42:00.511Z,91.30
2019-03-08T05:44:27.028Z,91.40
2019-03-08T05:46:54.123Z,91.40
2019-03-08T05:49:20.949Z,91.40
2019-03-08T05:51:47.448Z,91.30
2019-03-08T05:54:13.990Z,91.10
2019-03-08T05:56:40.869Z,90.90
2019-03-08T05:59:07.416Z,91.00
2019-03-08T06:01:34.349Z,91.20
2019-03-08T06:04:00.847Z,91.30
2019-03-08T06:06:27.947Z,91.30
2019-03-08T06:08:54.771Z,91.50
2019-03-08T06:11:21.293Z,91.20
2019-03-08T06:13:47.850Z,91.50
2019-03-08T06:16:15.100Z,91.40
2019-03-08T06:18:41.613Z,91.50
2019-03-08T06:21:08.474Z,91.00
2019-03-08T06:23:35.323Z,91.10
2019-03-08T06:26:02.476Z,91.00
2019-03-08T06:28:29.415Z,91.10
2019-03-08T06:30:56.225Z,90.90
2019-03-08T06:33:22.896Z,91.10
2019-03-08T06:35:50.159Z,91.10
2019-03-08T06:38:16.815Z,91.20
2019-03-08T06:40:43.327Z,90.80
2019-03-08T06:43:10.487Z,90.80
2019-03-08T06:45:37.544Z,91.10
2019-03-08T06:48:04.479Z,91.20
2019-03-08T06:50:31.129Z,90.70
2019-03-08T06:52:58.486Z,90.90
2019-03-08T06:55:25.177Z,90.80
2019-03-08T06:57:58.204Z,90.90
2019-03-08T07:00:41.443Z,91.00
2019-03-08T07:03:09.709Z,90.40
2019-03-08T07:05:36.564Z,90.20
2019-03-08T07:08:04.145Z,89.50
2019-03-08T07:10:30.760Z,88.50
2019-03-08T07:13:03.401Z,90.10
2019-03-08T07:15:26.585Z,90.80
2019-03-08T07:17:53.530Z,90.80
2019-03-08T07:20:27.953Z,90.50
2019-03-08T07:23:14.559Z,89.90
2019-03-08T07:26:01.592Z,90.60
2019-03-08T07:28:39.389Z,90.40
2019-03-08T07:31:24.086Z,90.70
2019-03-08T07:33:55.920Z,90.70
2019-03-08T07:36:41.016Z,91.00
2019-03-08T07:39:34.062Z,91.20
2019-03-08T07:42:22.450Z,90.60
2019-03-08T07:45:03.769Z,90.90
2019-03-08T07:47:50.122Z,90.70
2019-03-08T07:50:21.323Z,90.90
2019-03-08T07:52:52.564Z,90.70
2019-03-08T07:55:29.954Z,91.00
2019-03-08T07:57:58.437Z,90.70
2019-03-08T08:00:35.552Z,89.80
2019-03-08T08:03:13.270Z,89.60
2019-03-08T08:05:57.374Z,89.10
2019-03-08T08:08:21.433Z,88.20
2019-03-08T08:11:06.923Z,88.10
2019-03-08T08:13:38.445Z,88.40
2019-03-08T08:16:10.359Z,87.60
2019-03-08T08:18:51.208Z,87.90
2019-03-08T08:21:22.869Z,88.40
2019-03-08T08:23:51.396Z,86.20
2019-03-08T08:26:25.673Z,86.60
2019-03-08T08:28:55.886Z,85.30
2019-03-08T08:31:37.072Z,84.10
2019-03-08T08:34:12.107Z,81.30
2019-03-08T08:36:40.891Z,82.60
2019-03-08T08:39:20.540Z,81.80
2019-03-08T08:41:52.095Z,81.70
2019-03-08T08:44:26.819Z,82.50
2019-03-08T08:47:01.447Z,79.50
2019-03-08T08:49:54.265Z,77.20
2019-03-08T08:52:19.606Z,72.70
2019-03-08T08:55:05.508Z,71.10
2019-03-08T08:57:34.762Z,69.50
2019-03-08T09:00:05.946Z,70.00
2019-03-08T09:02:49.427Z,74.70
2019-03-08T09:05:24.226Z,74.40
2019-03-08T09:07:58.831Z,70.40
2019-03-08T09:10:27.277Z,73.00
2019-03-08T09:13:02.243Z,77.50
2019-03-08T09:15:43.339Z,79.80
2019-03-08T09:18:27.076Z,73.70
2019-03-08T09:20:56.778Z,75.90
2019-03-08T09:23:40.311Z,76.90
2019-03-08T09:26:09.096Z,73.20
2019-03-08T09:28:52.631Z,69.20
2019-03-08T09:31:30.103Z,69.30
2019-03-08T09:34:01.713Z,71.50
2019-03-08T09:36:39.169Z,66.50
2019-03-08T09:39:10.829Z,64.20
2019-03-08T09:41:42.054Z,66.40
2019-03-08T09:44:19.572Z,59.30
2019-03-08T09:46:49.386Z,65.50
2019-03-08T09:49:34.654Z,63.30
2019-03-08T09:52:21.481Z,62.90
2019-03-08T09:54:49.883Z,63.80
2019-03-08T09:57:18.307Z,66.30
2019-03-08T10:00:03.246Z,65.40
2019-03-08T10:02:37.520Z,65.70
2019-03-08T10:05:18.808Z,67.90
2019-03-08T10:07:57.010Z,67.10
2019-03-08T10:10:42.178Z,65.00
2019-03-08T10:13:13.528Z,66.50
2019-03-08T10:15:42.332Z,67.70
2019-03-08T10:18:11.550Z,67.00
2019-03-08T10:20:40.199Z,66.80
2019-03-08T10:23:08.594Z,61.00
2019-03-08T10:25:37.374Z,60.90
2019-03-08T10:28:06.182Z,59.60
2019-03-08T10:30:51.241Z,60.90
2019-03-08T10:33:36.222Z,59.60
2019-03-08T10:36:17.184Z,59.70
2019-03-08T10:38:46.366Z,62.60
2019-03-08T10:41:21.216Z,63.00
2019-03-08T10:43:52.583Z,63.00
2019-03-08T10:46:26.673Z,64.50
2019-03-08T10:49:11.868Z,65.60
2019-03-08T10:51:57.826Z,61.70
2019-03-08T10:54:30.749Z,58.00
2019-03-08T10:57:14.422Z,59.80
2019-03-08T10:59:42.935Z,61.50
2019-03-08T11:02:17.367Z,59.40
2019-03-08T11:04:52.302Z,60.70
2019-03-08T11:07:33.506Z,60.80
2019-03-08T11:10:04.465Z,61.40
2019-03-08T11:12:33.206Z,61.30
2019-03-08T11:15:01.642Z,61.80
2019-03-08T11:17:50.779Z,60.40
2019-03-08T11:20:22.312Z,61.90
2019-03-08T11:23:06.150Z,62.70
2019-03-08T11:25:40.253Z,61.50
2019-03-08T11:28:25.035Z,64.60
2019-03-08T11:30:59.271Z,64.50
2019-03-08T11:33:31.175Z,64.80
2019-03-08T11:35:59.592Z,65.30
2019-03-08T11:38:44.784Z,65.30
2019-03-08T11:41:16.016Z,66.00
2019-03-08T11:43:44.829Z,66.00
2019-03-08T11:46:31.609Z,66.70
2019-03-08T11:51:53.658Z,67.40
2019-03-08T11:54:40.552Z,66.80
2019-03-08T11:57:20.767Z,67.50
2019-03-08T11:59:52.012Z,67.90
2019-03-08T12:02:38.019Z,68.40
2019-03-08T12:05:18.649Z,68.20
2019-03-08T12:08:02.287Z,68.20
2019-03-08T12:10:30.699Z,68.00
2019-03-08T12:13:15.744Z,68.50
2019-03-08T12:15:44.931Z,69.80
2019-03-08T12:18:15.890Z,70.90
2019-03-08T12:20:50.148Z,71.40
2019-03-08T12:23:35.103Z,71.50
2019-03-08T12:26:09.586Z,71.80
2019-03-08T12:28:38.358Z,71.80
2019-03-08T12:31:16.073Z,72.30
2019-03-08T12:33:44.489Z,72.10
2019-03-08T12:36:28.193Z,72.90
2019-03-08T12:38:59.235Z,72.80
2019-03-08T12:41:34.088Z,73.10
2019-03-08T12:44:14.595Z,73.80
2019-03-08T12:46:43.069Z,74.30
2019-03-08T12:49:17.322Z,74.60
2019-03-08T12:51:46.112Z,75.40
2019-03-08T12:54:20.641Z,75.80
2019-03-08T12:56:55.566Z,76.30
2019-03-08T12:59:27.124Z,76.50
2019-03-08T13:02:12.194Z,76.60
2019-03-08T13:04:52.429Z,76.80
2019-03-08T13:07:37.547Z,77.40
2019-03-08T13:10:08.664Z,77.60
2019-03-08T13:12:35.406Z,78.10
2019-03-08T13:15:05.907Z,78.30
2019-03-08T13:17:32.443Z,78.00
2019-03-08T13:19:59.316Z,78.60
2019-03-08T13:22:25.924Z,78.80
2019-03-08T13:24:52.795Z,78.90
2019-03-08T13:27:19.736Z,79.30
2019-03-08T13:29:46.353Z,79.00
2019-03-08T13:32:12.893Z,78.80
2019-03-08T13:34:39.388Z,79.80
2019-03-08T13:37:06.066Z,80.00
2019-03-08T13:39:33.038Z,79.80
2019-03-08T13:41:59.979Z,79.50
2019-03-08T13:44:26.595Z,79.50
2019-03-08T13:46:53.156Z,80.40
2019-03-08T13:49:20.618Z,80.20
2019-03-08T13:51:47.212Z,81.00
2019-03-08T13:54:13.774Z,80.70
2019-03-08T13:56:40.743Z,80.80
2019-03-08T13:59:07.345Z,80.70
2019-03-08T14:01:34.327Z,81.20
2019-03-08T14:04:01.272Z,81.60
2019-03-08T14:06:28.189Z,81.60
2019-03-08T14:08:55.056Z,81.60
2019-03-08T14:11:22.003Z,82.00
2019-03-08T14:13:48.948Z,82.20
2019-03-08T14:16:15.605Z,82.00
2019-03-08T14:18:42.111Z,81.90
2019-03-08T14:21:08.612Z,82.20
2019-03-08T14:23:35.813Z,82.60
2019-03-08T14:26:03.058Z,82.60
2019-03-08T14:28:30.008Z,82.80
2019-03-08T14:30:58.472Z,82.60
2019-03-08T14:33:25.336Z,83.00
2019-03-08T14:35:52.282Z,83.40
2019-03-08T14:38:18.968Z,83.30
2019-03-08T14:40:53.187Z,83.80
2019-03-08T14:43:32.884Z,83.40
2019-03-08T14:46:03.807Z,83.50
2019-03-08T14:48:30.451Z,83.30
2019-03-08T14:50:57.816Z,83.60
2019-03-08T14:53:28.305Z,83.80
2019-03-08T14:55:55.072Z,83.90
2019-03-08T14:58:21.623Z,84.70
2019-03-08T15:00:48.569Z,84.10
2019-03-08T15:03:15.526Z,84.10
2019-03-08T15:05:42.340Z,84.40
2019-03-08T15:08:09.305Z,83.80
2019-03-08T15:10:39.499Z,83.60
2019-03-08T15:13:04.660Z,83.60
2019-03-08T15:15:31.681Z,83.70
2019-03-08T15:17:58.629Z,83.40
2019-03-08T15:20:25.575Z,83.80
2019-03-08T15:22:52.445Z,84.00
2019-03-08T15:25:19.034Z,83.70
2019-03-08T15:27:45.530Z,83.90
2019-03-08T15:30:15.073Z,83.50
2019-03-08T15:32:41.584Z,83.80
2019-03-08T15:35:10.407Z,83.60
2019-03-08T15:37:43.946Z,83.60
2019-03-08T15:40:08.970Z,83.40
2019-03-08T15:42:36.661Z,84.30
2019-03-08T15:45:07.146Z,84.10
2019-03-08T15:47:36.236Z,84.20
2019-03-08T15:50:07.865Z,83.60
2019-03-08T15:52:33.168Z,83.60
2019-03-08T15:54:59.873Z,83.70
2019-03-08T15:57:26.855Z,83.80
2019-03-08T15:59:53.483Z,84.10
2019-03-08T16:02:20.097Z,84.30
2019-03-08T16:04:50.053Z,84.10
2019-03-08T16:07:18.947Z,84.00
2019-03-08T16:09:44.768Z,84.20
2019-03-08T16:12:11.378Z,83.90
2019-03-08T16:14:38.017Z,84.30
2019-03-08T16:17:04.983Z,84.30
2019-03-08T16:19:32.241Z,84.30
2019-03-08T16:21:58.845Z,84.70
2019-03-08T16:24:27.223Z,84.50
2019-03-08T16:26:53.879Z,84.90
2019-03-08T16:29:20.496Z,84.50
2019-03-08T16:32:07.352Z,83.90
2019-03-08T16:34:34.193Z,84.20
2019-03-08T16:37:11.678Z,83.70
2019-03-08T16:39:40.273Z,83.90
2019-03-08T16:42:11.830Z,83.70
2019-03-08T16:44:40.176Z,83.70
2019-03-08T16:47:26.705Z,83.90
2019-03-08T16:49:55.613Z,84.20
2019-03-08T16:52:27.351Z,84.00
2019-03-08T16:55:01.667Z,83.70
2019-03-08T16:57:45.519Z,83.90
2019-03-08T17:00:13.982Z,84.30
2019-03-08T17:02:57.376Z,84.80
2019-03-08T17:05:26.227Z,85.40
2019-03-08T17:07:57.783Z,85.90
2019-03-08T17:10:35.040Z,85.60
2019-03-08T17:13:03.451Z,85.60
2019-03-08T17:15:32.447Z,86.00
2019-03-08T17:18:06.619Z,86.20
2019-03-08T17:20:41.292Z,86.10
2019-03-08T17:23:12.249Z,86.50
2019-03-08T17:25:49.625Z,86.50
2019-03-08T17:28:21.160Z,86.80
2019-03-08T17:30:58.967Z,86.90
2019-03-08T17:33:30.458Z,87.30
2019-03-08T17:36:05.071Z,87.50
2019-03-08T17:38:49.877Z,87.90
2019-03-08T17:41:22.604Z,87.90
2019-03-08T17:43:51.581Z,88.40
2019-03-08T17:46:26.412Z,88.30
2019-03-08T17:48:57.585Z,88.10
2019-03-08T17:51:28.535Z,88.10
2019-03-08T17:54:06.516Z,87.90
2019-03-08T17:56:37.790Z,87.70
2019-03-08T17:59:12.175Z,88.10
2019-03-08T18:01:40.636Z,87.70
2019-03-08T18:04:19.321Z,87.90
2019-03-08T18:06:52.817Z,87.30
2019-03-08T18:09:37.948Z,87.00
2019-03-08T18:12:22.099Z,87.40
2019-03-08T18:15:05.730Z,86.40
2019-03-08T18:17:40.060Z,86.50
2019-03-08T18:20:15.087Z,86.40
2019-03-08T18:22:46.033Z,86.20
2019-03-08T18:25:14.894Z,86.50
2019-03-08T18:27:46.516Z,86.10
2019-03-08T18:30:15.474Z,85.70
2019-03-08T18:32:43.913Z,85.10
2019-03-08T18:35:28.841Z,85.40
2019-03-08T18:38:09.993Z,85.90
2019-03-08T18:40:47.702Z,86.00
2019-03-08T18:43:31.737Z,87.10
2019-03-08T18:46:03.596Z,87.80
2019-03-08T18:48:38.131Z,88.30
2019-03-08T18:51:23.048Z,88.60
2019-03-08T18:53:54.752Z,89.30
2019-03-08T18:56:26.617Z,89.60
2019-03-08T18:59:07.078Z,90.10
2019-03-08T19:01:52.244Z,90.00
2019-03-08T19:04:29.268Z,90.30
2019-03-08T19:07:07.144Z,90.60
2019-03-08T19:09:38.378Z,90.70
2019-03-08T19:12:12.785Z,90.60
2019-03-08T19:14:57.935Z,90.50
2019-03-08T19:17:32.192Z,91.00
2019-03-08T19:20:09.574Z,90.70
2019-03-08T19:22:44.479Z,90.70
2019-03-08T19:25:15.786Z,90.50
2019-03-08T19:27:52.999Z,90.90
2019-03-08T19:30:24.497Z,90.70
2019-03-08T19:32:58.887Z,90.50
2019-03-08T19:35:27.377Z,90.40
2019-03-08T19:37:55.777Z,90.40
2019-03-08T19:40:27.980Z,90.70
2019-03-08T19:42:56.688Z,90.80
2019-03-08T19:45:30.877Z,90.70
2019-03-08T19:48:17.775Z,90.70
2019-03-08T19:50:49.315Z,90.80
2019-03-08T19:53:21.183Z,90.90
2019-03-08T19:55:58.350Z,90.80
2019-03-08T19:58:41.902Z,90.80
2019-03-08T20:01:16.136Z,90.90
2019-03-08T20:03:44.903Z,91.10
2019-03-08T20:06:19.326Z,91.00
2019-03-08T20:08:47.717Z,91.10
2019-03-08T20:11:28.374Z,91.10
2019-03-08T20:13:57.167Z,90.90
2019-03-08T20:16:25.613Z,90.80
2019-03-08T20:19:02.685Z,90.70
2019-03-08T20:21:48.002Z,90.60
2019-03-08T20:24:25.409Z,90.70
2019-03-08T20:27:10.450Z,90.70
2019-03-08T20:29:42.139Z,90.60
2019-03-08T20:32:13.060Z,90.70
2019-03-08T20:34:59.524Z,90.70
2019-03-08T20:37:28.024Z,90.60
2019-03-08T20:52:48.743Z,90.30
2019-03-08T20:55:17.837Z,90.40
2019-03-08T20:57:46.631Z,90.40
2019-03-08T21:00:17.566Z,90.40
2019-03-08T21:02:46.666Z,90.60
2019-03-08T21:05:15.560Z,90.70
2019-03-08T21:07:44.692Z,90.80
2019-03-08T21:10:15.595Z,90.80
2019-03-08T21:12:44.714Z,90.90
2019-03-08T21:15:14.852Z,90.90
2019-03-08T21:17:44.639Z,90.80
2019-03-08T21:20:14.737Z,90.80
2019-03-08T21:22:43.829Z,90.90
2019-03-08T21:25:16.848Z,90.90
2019-03-08T21:27:45.630Z,90.90
2019-03-08T21:30:19.288Z,90.90
2019-03-08T21:32:48.413Z,90.90
2019-03-08T21:35:17.124Z,90.90
2019-03-08T21:37:46.708Z,91.00
2019-03-08T21:40:16.489Z,90.90
2019-03-08T21:42:45.612Z,91.00
2019-03-08T21:45:18.046Z,90.80
2019-03-08T21:47:46.764Z,90.70
2019-03-08T21:50:17.644Z,90.80
2019-03-08T21:52:46.403Z,90.80
2019-03-08T21:55:15.117Z,90.60
2019-03-08T21:57:44.183Z,90.70
2019-03-08T22:00:24.179Z,90.70
2019-03-08T22:02:53.355Z,90.80
2019-03-08T22:05:26.830Z,90.70
2019-03-08T22:07:55.548Z,90.60
2019-03-08T22:10:32.093Z,90.70
2019-03-08T22:13:01.190Z,90.40
2019-03-08T22:15:30.803Z,90.30
2019-03-08T22:18:00.014Z,90.50
2019-03-08T22:20:28.693Z,90.30
2019-03-08T22:22:57.896Z,90.30
2019-03-08T22:25:26.967Z,90.30
2019-03-08T22:27:55.753Z,90.30
2019-03-08T22:30:24.551Z,90.20
2019-03-08T22:32:54.222Z,90.10
2019-03-08T22:35:22.928Z,90.10
2019-03-08T22:37:52.007Z,90.00
2019-03-08T22:40:21.150Z,90.10
2019-03-08T22:42:49.935Z,90.30
2019-03-08T22:45:19.030Z,90.20
2019-03-08T22:47:48.230Z,90.20
2019-03-08T22:50:17.324Z,90.30
2019-03-08T22:52:46.422Z,90.30
2019-03-08T22:55:15.581Z,90.40
2019-03-08T22:57:44.368Z,90.50
2019-03-08T23:00:19.812Z,90.60
2019-03-08T23:02:49.045Z,90.60
2019-03-08T23:05:17.828Z,91.00
2019-03-08T23:07:46.567Z,90.60
2019-03-08T23:10:15.361Z,90.50
2019-03-08T23:12:44.517Z,90.30
2019-03-08T23:15:13.713Z,90.40
2019-03-08T23:17:42.812Z,90.20
2019-03-08T23:20:11.909Z,89.90
2019-03-08T23:22:41.206Z,89.70
2019-03-08T23:25:09.913Z,89.00
2019-03-08T23:27:40.626Z,88.80
2019-03-08T23:30:12.120Z,89.20
2019-03-08T23:32:42.303Z,89.20
2019-03-08T23:35:11.392Z,88.60
2019-03-08T23:37:40.489Z,88.90
2019-03-08T23:40:09.791Z,88.40
2019-03-08T23:42:38.622Z,87.20
2019-03-08T23:45:09.461Z,86.60
2019-03-08T23:47:38.521Z,86.70
2019-03-08T23:50:10.688Z,86.80
2019-03-08T23:52:39.936Z,87.00
2019-03-08T23:55:11.242Z,87.60
2019-03-08T23:57:40.329Z,87.80
